Eastern Wv Regional Shepherd Field
KMRB : now visible

Aeroporto :











RITROVATECI SU...

 
LOGIN :

Iscrizione | Disclaimer

   EN    FR    IT 

 









Sommario :    VFR   VFR Marginale   IFR   IFR Intensivo   IFR Molto Intensivo
Visibilità : 
Base nubi : 
>= 8 km
>= 3000ft
5 / 8 km
1000 / 3000 ft
1500m / 5 km
500 / 1000 ft
800 / 1500m
200 / 500 ft
< 800m
< 200 ft
Simboli :   Temporali  Nebbia  Neve Forte  Precipitazioni Forti  Vento > 20 kt







- Altitudine del aeroporto : 565 ft


KMRB - Eastern Wv Regional Shepherd Field

ULTIMO METAR :
  • 241953Z 26012G18KT 10SM CLR 23/02 A2983 RMK AO2 SLP098 T02330017

METARs OBSOLETI :
  • 241853Z 29009KT 10SM CLR 23/02 A2984 RMK AO2 SLP101 T02330022
  • 241753Z 28012KT 10SM CLR 23/01 A2986 RMK AO2 SLP106 T02280011 10228 20150 58016

TAF KMRB
Valido dal 24 a 18 ore il 25 a 18 ore UTC


241741Z 2418/2518 27007G16KT P6SM BKN250
FM242300 32007KT P6SM SCT150
FM250400 VRB03KT P6SM BKN050
FM251300 11004KT P6SM OVC035
TEMPO 2516/2518 5SM -SHRA OVC025
FIR KZDC / America del Nord



MetMap, La meteo Aeronautica in un colpo d'occhio ! - Copyright ORBIFLY Dicembre 2007 - Disclaimer

ORBIFLY MET'MAP TEAM :

Programmazione e sviluppo : Alexandra Zaïnal
Concezione e sviluppo : Baudouin d'Aumeries
Co-Programmazione e sviluppo : Marc-Olivier Méhu
Supporto tecnico e logistico : Manuel Goepfert
Aiuto per la traduzione : Arnaldo La Scala

Contatto : metmap@orbifly.com




FONTI E CREDITI :

   NOAA       Earth
Advisory